sensor_id;sensor_type;location;lat;lon;timestamp;pressure;altitude;pressure_sealevel;temperature;humidity
50652;BME280;66928;52.086;5.240;2023-05-07T05:23:13;101498.0;;;15.75;90.94
50652;BME280;66928;52.086;5.240;2023-05-07T05:24:49;101500.0;;;15.59;91.54
50652;BME280;66928;52.086;5.240;2023-05-07T05:26:25;101505.0;;;15.55;91.98
50652;BME280;66928;52.086;5.240;2023-05-07T05:29:37;101508.0;;;15.75;90.87
50652;BME280;66928;52.086;5.240;2023-05-07T05:31:14;101514.0;;;15.7;91.03
50652;BME280;66928;52.086;5.240;2023-05-07T05:32:50;101512.0;;;15.92;90.14
50652;BME280;66928;52.086;5.240;2023-05-07T05:36:02;101518.0;;;16.12;89.21
50652;BME280;66928;52.086;5.240;2023-05-07T05:37:39;101527.0;;;16.36;88.5
50652;BME280;66928;52.086;5.240;2023-05-07T05:39:15;101528.0;;;16.41;87.99
50652;BME280;66928;52.086;5.240;2023-05-07T05:40:53;101524.0;;;16.25;88.07
50652;BME280;66928;52.086;5.240;2023-05-07T05:44:06;101525.0;;;16.15;88.37
50652;BME280;66928;52.086;5.240;2023-05-07T05:45:42;101527.0;;;16.06;89.51
50652;BME280;66928;52.086;5.240;2023-05-07T05:47:18;101525.0;;;16.03;89.12
50652;BME280;66928;52.086;5.240;2023-05-07T05:50:31;101528.0;;;15.85;90.36
50652;BME280;66928;52.086;5.240;2023-05-07T05:52:07;101531.0;;;15.76;91.02
50652;BME280;66928;52.086;5.240;2023-05-07T05:53:43;101535.0;;;15.88;90.7
50652;BME280;66928;52.086;5.240;2023-05-07T05:56:56;101533.0;;;15.77;91.78
50652;BME280;66928;52.086;5.240;2023-05-07T05:58:33;101535.0;;;15.53;92.78
50652;BME280;66928;52.086;5.240;2023-05-07T06:00:10;101538.0;;;15.55;92.81
50652;BME280;66928;52.086;5.240;2023-05-07T06:01:46;101538.0;;;15.33;93.82
50652;BME280;66928;52.086;5.240;2023-05-07T06:04:59;101536.0;;;15.66;92.76
50652;BME280;66928;52.086;5.240;2023-05-07T06:06:35;101539.0;;;15.67;92.7
50652;BME280;66928;52.086;5.240;2023-05-07T06:08:11;101539.0;;;15.78;91.95
50652;BME280;66928;52.086;5.240;2023-05-07T06:11:23;101538.0;;;15.72;92.14
50652;BME280;66928;52.086;5.240;2023-05-07T06:12:59;101539.0;;;15.66;92.35
50652;BME280;66928;52.086;5.240;2023-05-07T06:14:36;101536.0;;;15.73;92.14
50652;BME280;66928;52.086;5.240;2023-05-07T06:17:49;101540.0;;;15.96;91.22
50652;BME280;66928;52.086;5.240;2023-05-07T06:19:25;101542.0;;;15.96;91.42
50652;BME280;66928;52.086;5.240;2023-05-07T06:21:02;101544.0;;;16.05;91.0
50652;BME280;66928;52.086;5.240;2023-05-07T06:22:38;101544.0;;;15.9;91.6
50652;BME280;66928;52.086;5.240;2023-05-07T06:25:51;101550.0;;;16.09;90.52
50652;BME280;66928;52.086;5.240;2023-05-07T06:27:28;101545.0;;;16.27;90.25
50652;BME280;66928;52.086;5.240;2023-05-07T06:29:04;101541.0;;;16.13;90.55
50652;BME280;66928;52.086;5.240;2023-05-07T06:32:17;101542.0;;;16.25;90.15
50652;BME280;66928;52.086;5.240;2023-05-07T06:33:55;101542.0;;;16.43;89.24
50652;BME280;66928;52.086;5.240;2023-05-07T06:35:31;101543.0;;;16.63;88.3
50652;BME280;66928;52.086;5.240;2023-05-07T06:38:43;101548.0;;;16.57;87.89
50652;BME280;66928;52.086;5.240;2023-05-07T06:40:19;101550.0;;;16.84;87.28
50652;BME280;66928;52.086;5.240;2023-05-07T06:41:55;101555.0;;;16.87;86.45
50652;BME280;66928;52.086;5.240;2023-05-07T06:43:32;101553.0;;;16.84;86.36
50652;BME280;66928;52.086;5.240;2023-05-07T06:46:46;101550.0;;;17.02;86.37
50652;BME280;66928;52.086;5.240;2023-05-07T06:48:22;101557.0;;;17.18;85.43
50652;BME280;66928;52.086;5.240;2023-05-07T06:49:58;101559.0;;;17.13;85.51
50652;BME280;66928;52.086;5.240;2023-05-07T06:53:10;101562.0;;;17.21;84.56
50652;BME280;66928;52.086;5.240;2023-05-07T06:54:46;101560.0;;;17.25;84.59
50652;BME280;66928;52.086;5.240;2023-05-07T06:56:23;101564.0;;;17.16;85.12
50652;BME280;66928;52.086;5.240;2023-05-07T06:59:36;101562.0;;;17.13;84.82
50652;BME280;66928;52.086;5.240;2023-05-07T07:01:12;101569.0;;;17.37;84.35
50652;BME280;66928;52.086;5.240;2023-05-07T07:02:48;101568.0;;;17.27;84.02
50652;BME280;66928;52.086;5.240;2023-05-07T07:06:01;101565.0;;;17.37;84.13
50652;BME280;66928;52.086;5.240;2023-05-07T07:07:37;101568.0;;;17.53;83.39
50652;BME280;66928;52.086;5.240;2023-05-07T07:09:13;101569.0;;;17.66;82.7
50652;BME280;66928;52.086;5.240;2023-05-07T07:10:49;101566.0;;;17.78;81.66
50652;BME280;66928;52.086;5.240;2023-05-07T07:14:01;101567.0;;;17.93;81.66
50652;BME280;66928;52.086;5.240;2023-05-07T07:15:38;101565.0;;;17.86;81.22
50652;BME280;66928;52.086;5.240;2023-05-07T07:17:14;101568.0;;;18.21;80.13
50652;BME280;66928;52.086;5.240;2023-05-07T07:20:27;101568.0;;;18.34;79.22
50652;BME280;66928;52.086;5.240;2023-05-07T07:22:03;101566.0;;;18.16;80.0
50652;BME280;66928;52.086;5.240;2023-05-07T07:23:39;101563.0;;;18.22;80.02
50652;BME280;66928;52.086;5.240;2023-05-07T07:26:53;101563.0;;;18.06;80.91
50652;BME280;66928;52.086;5.240;2023-05-07T07:28:29;101562.0;;;18.06;80.81
50652;BME280;66928;52.086;5.240;2023-05-07T07:30:07;101557.0;;;17.82;82.02
50652;BME280;66928;52.086;5.240;2023-05-07T07:31:43;101557.0;;;18.02;81.31
50652;BME280;66928;52.086;5.240;2023-05-07T07:34:55;101558.0;;;18.12;80.22
50652;BME280;66928;52.086;5.240;2023-05-07T07:36:31;101561.0;;;18.48;78.98
50652;BME280;66928;52.086;5.240;2023-05-07T07:38:08;101568.0;;;18.63;78.27
50652;BME280;66928;52.086;5.240;2023-05-07T07:41:20;101568.0;;;18.68;78.12
50652;BME280;66928;52.086;5.240;2023-05-07T07:42:56;101563.0;;;18.89;77.02
50652;BME280;66928;52.086;5.240;2023-05-07T07:44:33;101561.0;;;18.68;78.27
50652;BME280;66928;52.086;5.240;2023-05-07T07:47:48;101563.0;;;18.43;79.83
50652;BME280;66928;52.086;5.240;2023-05-07T07:49:24;101567.0;;;18.52;79.83
50652;BME280;66928;52.086;5.240;2023-05-07T07:51:01;101565.0;;;18.39;79.97
50652;BME280;66928;52.086;5.240;2023-05-07T07:52:37;101568.0;;;18.36;80.75
50652;BME280;66928;52.086;5.240;2023-05-07T07:55:50;101572.0;;;18.52;80.52
50652;BME280;66928;52.086;5.240;2023-05-07T07:57:26;101576.0;;;18.59;80.42
50652;BME280;66928;52.086;5.240;2023-05-07T07:59:04;101577.0;;;18.41;81.11
50652;BME280;66928;52.086;5.240;2023-05-07T08:02:16;101581.0;;;18.38;80.98
50652;BME280;66928;52.086;5.240;2023-05-07T08:03:53;101580.0;;;18.32;81.72
50652;BME280;66928;52.086;5.240;2023-05-07T08:05:29;101581.0;;;18.36;81.77
50652;BME280;66928;52.086;5.240;2023-05-07T08:08:42;101583.0;;;18.34;82.29
50652;BME280;66928;52.086;5.240;2023-05-07T08:10:19;101581.0;;;18.43;81.52
50652;BME280;66928;52.086;5.240;2023-05-07T08:11:57;101580.0;;;18.66;79.88
50652;BME280;66928;52.086;5.240;2023-05-07T08:13:34;101578.0;;;18.77;78.83
50652;BME280;66928;52.086;5.240;2023-05-07T08:16:47;101577.0;;;18.61;80.56
50652;BME280;66928;52.086;5.240;2023-05-07T08:18:25;101573.0;;;18.55;81.11
50652;BME280;66928;52.086;5.240;2023-05-07T08:20:01;101574.0;;;18.36;82.54
50652;BME280;66928;52.086;5.240;2023-05-07T08:23:15;101576.0;;;18.34;82.04
50652;BME280;66928;52.086;5.240;2023-05-07T08:24:52;101580.0;;;17.96;83.13
50652;BME280;66928;52.086;5.240;2023-05-07T08:26:28;101577.0;;;18.16;82.75
50652;BME280;66928;52.086;5.240;2023-05-07T08:29:41;101578.0;;;18.13;83.02
50652;BME280;66928;52.086;5.240;2023-05-07T08:31:17;101577.0;;;18.45;80.99
50652;BME280;66928;52.086;5.240;2023-05-07T08:32:53;101580.0;;;18.38;81.24
50652;BME280;66928;52.086;5.240;2023-05-07T08:34:29;101580.0;;;18.45;81.92
50652;BME280;66928;52.086;5.240;2023-05-07T08:37:42;101573.0;;;18.5;81.92
50652;BME280;66928;52.086;5.240;2023-05-07T08:39:19;101580.0;;;18.28;82.56
50652;BME280;66928;52.086;5.240;2023-05-07T08:40:56;101580.0;;;18.14;83.67
50652;BME280;66928;52.086;5.240;2023-05-07T08:44:13;101582.0;;;18.06;84.37
50652;BME280;66928;52.086;5.240;2023-05-07T08:45:53;101580.0;;;18.2;83.6
50652;BME280;66928;52.086;5.240;2023-05-07T08:49:15;101588.0;;;18.12;84.82
50652;BME280;66928;52.086;5.240;2023-05-07T08:52:29;101588.0;;;18.31;83.68
50652;BME280;66928;52.086;5.240;2023-05-07T08:54:06;101590.0;;;18.46;83.75
50652;BME280;66928;52.086;5.240;2023-05-07T08:55:44;101588.0;;;18.52;83.16
50652;BME280;66928;52.086;5.240;2023-05-07T08:58:58;101591.0;;;18.77;81.97
50652;BME280;66928;52.086;5.240;2023-05-07T09:00:36;101594.0;;;18.41;84.41
50652;BME280;66928;52.086;5.240;2023-05-07T09:02:13;101587.0;;;18.84;81.02
50652;BME280;66928;52.086;5.240;2023-05-07T09:03:51;101592.0;;;18.88;80.44
50652;BME280;66928;52.086;5.240;2023-05-07T09:07:04;101596.0;;;18.89;80.74
50652;BME280;66928;52.086;5.240;2023-05-07T09:08:41;101594.0;;;18.91;80.7
50652;BME280;66928;52.086;5.240;2023-05-07T09:10:25;101588.0;;;19.07;80.02
50652;BME280;66928;52.086;5.240;2023-05-07T09:13:39;101588.0;;;19.32;77.87
50652;BME280;66928;52.086;5.240;2023-05-07T09:15:15;101592.0;;;19.28;78.73
50652;BME280;66928;52.086;5.240;2023-05-07T09:16:52;101593.0;;;19.18;79.47
50652;BME280;66928;52.086;5.240;2023-05-07T09:18:29;101592.0;;;19.52;78.3
50652;BME280;66928;52.086;5.240;2023-05-07T09:21:43;101592.0;;;19.27;79.58
50652;BME280;66928;52.086;5.240;2023-05-07T09:23:20;101596.0;;;18.98;80.33
50652;BME280;66928;52.086;5.240;2023-05-07T09:24:57;101597.0;;;19.39;79.27
50652;BME280;66928;52.086;5.240;2023-05-07T09:28:10;101598.0;;;19.66;77.42
50652;BME280;66928;52.086;5.240;2023-05-07T09:29:46;101599.0;;;19.75;77.23
50652;BME280;66928;52.086;5.240;2023-05-07T09:31:24;101598.0;;;19.56;77.47
50652;BME280;66928;52.086;5.240;2023-05-07T09:33:02;101594.0;;;19.28;78.74
50652;BME280;66928;52.086;5.240;2023-05-07T09:36:18;101589.0;;;19.52;77.77
50652;BME280;66928;52.086;5.240;2023-05-07T09:37:55;101592.0;;;19.45;78.31
50652;BME280;66928;52.086;5.240;2023-05-07T09:39:42;101595.0;;;19.46;78.02
50652;BME280;66928;52.086;5.240;2023-05-07T09:42:56;101597.0;;;19.45;78.33
50652;BME280;66928;52.086;5.240;2023-05-07T09:44:34;101597.0;;;19.73;76.8
50652;BME280;66928;52.086;5.240;2023-05-07T09:46:12;101602.0;;;19.77;75.55
50652;BME280;66928;52.086;5.240;2023-05-07T09:47:53;101605.0;;;20.02;74.45
50652;BME280;66928;52.086;5.240;2023-05-07T09:51:21;101602.0;;;19.88;73.92
50652;BME280;66928;52.086;5.240;2023-05-07T09:53:06;101605.0;;;19.59;73.39
50652;BME280;66928;52.086;5.240;2023-05-07T09:54:45;101602.0;;;19.75;72.53
50652;BME280;66928;52.086;5.240;2023-05-07T09:56:24;101605.0;;;19.63;73.47
50652;BME280;66928;52.086;5.240;2023-05-07T09:59:42;101605.0;;;20.0;73.12
50652;BME280;66928;52.086;5.240;2023-05-07T10:01:20;101611.0;;;20.11;73.0
50652;BME280;66928;52.086;5.240;2023-05-07T10:02:58;101608.0;;;20.28;72.47
50652;BME280;66928;52.086;5.240;2023-05-07T10:04:36;101607.0;;;20.37;72.19
50652;BME280;66928;52.086;5.240;2023-05-07T10:07:52;101608.0;;;20.54;71.19
50652;BME280;66928;52.086;5.240;2023-05-07T10:09:29;101606.0;;;20.56;69.83
50652;BME280;66928;52.086;5.240;2023-05-07T10:11:06;101608.0;;;20.28;69.97
50652;BME280;66928;52.086;5.240;2023-05-07T10:12:42;101607.0;;;20.2;70.42
50652;BME280;66928;52.086;5.240;2023-05-07T10:15:57;101609.0;;;19.91;72.11
50652;BME280;66928;52.086;5.240;2023-05-07T10:17:35;101605.0;;;20.3;70.83
50652;BME280;66928;52.086;5.240;2023-05-07T10:19:12;101606.0;;;20.28;71.38
50652;BME280;66928;52.086;5.240;2023-05-07T10:22:32;101609.0;;;20.2;69.27
50652;BME280;66928;52.086;5.240;2023-05-07T10:24:16;101606.0;;;20.09;70.3
50652;BME280;66928;52.086;5.240;2023-05-07T10:25:56;101610.0;;;19.68;71.66
50652;BME280;66928;52.086;5.240;2023-05-07T10:27:34;101607.0;;;19.77;72.83
50652;BME280;66928;52.086;5.240;2023-05-07T10:31:08;101612.0;;;20.02;72.49
50652;BME280;66928;52.086;5.240;2023-05-07T10:33:03;101611.0;;;19.86;72.17
50652;BME280;66928;52.086;5.240;2023-05-07T10:34:43;101608.0;;;19.82;72.17
50652;BME280;66928;52.086;5.240;2023-05-07T10:36:22;101599.0;;;20.18;71.45
50652;BME280;66928;52.086;5.240;2023-05-07T10:37:59;101598.0;;;20.25;70.52
50652;BME280;66928;52.086;5.240;2023-05-07T10:41:12;101599.0;;;20.34;70.28
50652;BME280;66928;52.086;5.240;2023-05-07T10:42:54;101605.0;;;20.53;70.05
50652;BME280;66928;52.086;5.240;2023-05-07T10:44:31;101605.0;;;20.53;69.39
50652;BME280;66928;52.086;5.240;2023-05-07T10:48:07;101607.0;;;20.39;68.31
50652;BME280;66928;52.086;5.240;2023-05-07T10:51:18;101611.0;;;20.72;67.52
50652;BME280;66928;52.086;5.240;2023-05-07T10:53:27;101612.0;;;20.78;67.61
50652;BME280;66928;52.086;5.240;2023-05-07T10:55:20;101610.0;;;20.77;66.23
50652;BME280;66928;52.086;5.240;2023-05-07T10:57:45;101609.0;;;20.86;66.05
50652;BME280;66928;52.086;5.240;2023-05-07T10:59:31;101599.0;;;20.93;66.33
50652;BME280;66928;52.086;5.240;2023-05-07T11:01:11;101600.0;;;20.88;66.8
50652;BME280;66928;52.086;5.240;2023-05-07T11:05:18;101599.0;;;21.11;67.05
50652;BME280;66928;52.086;5.240;2023-05-07T11:07:24;101607.0;;;21.18;66.34
50652;BME280;66928;52.086;5.240;2023-05-07T11:10:51;101610.0;;;21.44;65.83
50652;BME280;66928;52.086;5.240;2023-05-07T11:13:07;101610.0;;;21.62;65.34
50652;BME280;66928;52.086;5.240;2023-05-07T11:16:24;101609.0;;;21.34;66.77
50652;BME280;66928;52.086;5.240;2023-05-07T11:18:00;101607.0;;;21.18;67.62
50652;BME280;66928;52.086;5.240;2023-05-07T11:21:34;101613.0;;;21.33;67.05
50652;BME280;66928;52.086;5.240;2023-05-07T11:23:55;101620.0;;;21.45;66.09
50652;BME280;66928;52.086;5.240;2023-05-07T11:25:35;101615.0;;;21.29;66.55
50652;BME280;66928;52.086;5.240;2023-05-07T11:27:12;101615.0;;;21.19;66.1
50652;BME280;66928;52.086;5.240;2023-05-07T11:28:51;101615.0;;;21.45;65.66
50652;BME280;66928;52.086;5.240;2023-05-07T11:30:28;101613.0;;;21.56;64.98
50652;BME280;66928;52.086;5.240;2023-05-07T11:33:43;101614.0;;;21.61;64.62
50652;BME280;66928;52.086;5.240;2023-05-07T11:35:22;101609.0;;;21.57;64.14
50652;BME280;66928;52.086;5.240;2023-05-07T11:36:59;101612.0;;;21.66;64.22
50652;BME280;66928;52.086;5.240;2023-05-07T11:38:37;101611.0;;;21.9;64.08
50652;BME280;66928;52.086;5.240;2023-05-07T11:41:50;101610.0;;;21.95;63.45
50652;BME280;66928;52.086;5.240;2023-05-07T11:43:27;101611.0;;;22.07;63.46
50652;BME280;66928;52.086;5.240;2023-05-07T11:45:05;101611.0;;;21.97;63.7
50652;BME280;66928;52.086;5.240;2023-05-07T11:48:21;101615.0;;;22.3;63.06
50652;BME280;66928;52.086;5.240;2023-05-07T11:50:03;101612.0;;;22.39;63.09
50652;BME280;66928;52.086;5.240;2023-05-07T11:51:42;101611.0;;;22.62;62.26
50652;BME280;66928;52.086;5.240;2023-05-07T11:53:19;101609.0;;;22.55;62.09
50652;BME280;66928;52.086;5.240;2023-05-07T11:56:35;101609.0;;;22.3;61.61
50652;BME280;66928;52.086;5.240;2023-05-07T11:58:12;101611.0;;;22.2;62.11
50652;BME280;66928;52.086;5.240;2023-05-07T11:59:57;101608.0;;;22.06;62.86
50652;BME280;66928;52.086;5.240;2023-05-07T12:01:35;101614.0;;;21.91;62.66
50652;BME280;66928;52.086;5.240;2023-05-07T12:04:48;101617.0;;;21.99;63.17
50652;BME280;66928;52.086;5.240;2023-05-07T12:06:24;101616.0;;;22.08;62.66
50652;BME280;66928;52.086;5.240;2023-05-07T12:08:00;101615.0;;;22.23;61.74
50652;BME280;66928;52.086;5.240;2023-05-07T12:11:14;101611.0;;;22.25;62.23
50652;BME280;66928;52.086;5.240;2023-05-07T12:12:52;101607.0;;;22.33;61.59
50652;BME280;66928;52.086;5.240;2023-05-07T12:14:28;101605.0;;;22.18;61.85
50652;BME280;66928;52.086;5.240;2023-05-07T12:17:42;101607.0;;;22.28;61.95
50652;BME280;66928;52.086;5.240;2023-05-07T12:19:20;101605.0;;;22.56;61.3
50652;BME280;66928;52.086;5.240;2023-05-07T12:20:57;101608.0;;;22.66;61.17
50652;BME280;66928;52.086;5.240;2023-05-07T12:22:35;101613.0;;;22.05;60.89
50652;BME280;66928;52.086;5.240;2023-05-07T12:25:50;101615.0;;;22.27;60.99
50652;BME280;66928;52.086;5.240;2023-05-07T12:27:27;101609.0;;;22.17;60.7
50652;BME280;66928;52.086;5.240;2023-05-07T12:29:04;101608.0;;;22.22;61.45
50652;BME280;66928;52.086;5.240;2023-05-07T12:32:20;101605.0;;;22.05;61.76
50652;BME280;66928;52.086;5.240;2023-05-07T12:33:58;101610.0;;;22.28;60.99
50652;BME280;66928;52.086;5.240;2023-05-07T12:35:36;101605.0;;;22.57;60.88
50652;BME280;66928;52.086;5.240;2023-05-07T12:37:16;101603.0;;;22.55;60.28
50652;BME280;66928;52.086;5.240;2023-05-07T12:40:39;101603.0;;;22.43;60.01
50652;BME280;66928;52.086;5.240;2023-05-07T12:42:16;101606.0;;;22.22;60.88
50652;BME280;66928;52.086;5.240;2023-05-07T12:43:56;101602.0;;;22.4;60.61
50652;BME280;66928;52.086;5.240;2023-05-07T12:45:36;101600.0;;;22.37;60.45
50652;BME280;66928;52.086;5.240;2023-05-07T12:48:52;101602.0;;;22.6;60.12
50652;BME280;66928;52.086;5.240;2023-05-07T12:50:31;101601.0;;;22.63;60.05
50652;BME280;66928;52.086;5.240;2023-05-07T12:52:08;101603.0;;;22.58;60.27
50652;BME280;66928;52.086;5.240;2023-05-07T12:55:21;101607.0;;;22.84;59.6
50652;BME280;66928;52.086;5.240;2023-05-07T12:57:01;101611.0;;;22.61;60.4
50652;BME280;66928;52.086;5.240;2023-05-07T12:58:39;101616.0;;;22.66;60.59
50652;BME280;66928;52.086;5.240;2023-05-07T13:00:16;101615.0;;;22.82;59.74
50652;BME280;66928;52.086;5.240;2023-05-07T13:03:31;101615.0;;;22.55;59.17
50652;BME280;66928;52.086;5.240;2023-05-07T13:05:08;101618.0;;;22.81;58.32
50652;BME280;66928;52.086;5.240;2023-05-07T13:06:45;101617.0;;;22.59;58.44
50652;BME280;66928;52.086;5.240;2023-05-07T13:10:02;101618.0;;;22.63;58.37
50652;BME280;66928;52.086;5.240;2023-05-07T13:11:39;101616.0;;;22.64;57.53
50652;BME280;66928;52.086;5.240;2023-05-07T13:13:15;101619.0;;;22.55;57.81
50652;BME280;66928;52.086;5.240;2023-05-07T13:14:52;101619.0;;;22.87;58.17
50652;BME280;66928;52.086;5.240;2023-05-07T13:18:04;101619.0;;;23.03;57.98
50652;BME280;66928;52.086;5.240;2023-05-07T13:19:41;101618.0;;;22.81;57.51
50652;BME280;66928;52.086;5.240;2023-05-07T13:21:17;101620.0;;;22.59;57.3
50652;BME280;66928;52.086;5.240;2023-05-07T13:24:30;101617.0;;;23.03;57.77
50652;BME280;66928;52.086;5.240;2023-05-07T13:26:06;101625.0;;;23.12;56.9
50652;BME280;66928;52.086;5.240;2023-05-07T13:27:43;101623.0;;;23.15;56.89
50652;BME280;66928;52.086;5.240;2023-05-07T13:30:55;101618.0;;;23.33;56.29
50652;BME280;66928;52.086;5.240;2023-05-07T13:32:31;101614.0;;;23.24;55.75
50652;BME280;66928;52.086;5.240;2023-05-07T13:34:07;101616.0;;;23.39;55.94
50652;BME280;66928;52.086;5.240;2023-05-07T13:35:44;101613.0;;;23.61;54.65
50652;BME280;66928;52.086;5.240;2023-05-07T13:38:57;101610.0;;;23.71;54.78
50652;BME280;66928;52.086;5.240;2023-05-07T13:40:33;101615.0;;;23.81;54.3
50652;BME280;66928;52.086;5.240;2023-05-07T13:42:09;101609.0;;;23.86;53.64
50652;BME280;66928;52.086;5.240;2023-05-07T13:45:22;101605.0;;;23.77;53.52
50652;BME280;66928;52.086;5.240;2023-05-07T13:46:59;101614.0;;;23.8;52.37
50652;BME280;66928;52.086;5.240;2023-05-07T13:48:35;101612.0;;;23.84;51.36
50652;BME280;66928;52.086;5.240;2023-05-07T13:51:48;101613.0;;;23.59;52.08
50652;BME280;66928;52.086;5.240;2023-05-07T13:53:24;101610.0;;;23.66;52.28
50652;BME280;66928;52.086;5.240;2023-05-07T13:55:01;101611.0;;;23.75;51.4
50652;BME280;66928;52.086;5.240;2023-05-07T13:56:39;101608.0;;;24.04;51.6
50652;BME280;66928;52.086;5.240;2023-05-07T13:59:51;101609.0;;;23.99;48.68
50652;BME280;66928;52.086;5.240;2023-05-07T14:01:27;101614.0;;;24.01;49.8
50652;BME280;66928;52.086;5.240;2023-05-07T14:03:04;101612.0;;;24.2;50.62
50652;BME280;66928;52.086;5.240;2023-05-07T14:06:18;101607.0;;;24.25;50.77
50652;BME280;66928;52.086;5.240;2023-05-07T14:07:55;101611.0;;;24.18;49.38
50652;BME280;66928;52.086;5.240;2023-05-07T14:09:32;101610.0;;;24.14;50.66
50652;BME280;66928;52.086;5.240;2023-05-07T14:12:46;101615.0;;;24.1;51.12
50652;BME280;66928;52.086;5.240;2023-05-07T14:14:22;101618.0;;;24.16;50.34
50652;BME280;66928;52.086;5.240;2023-05-07T14:15:58;101613.0;;;24.26;49.98
50652;BME280;66928;52.086;5.240;2023-05-07T14:17:35;101615.0;;;24.32;48.82
50652;BME280;66928;52.086;5.240;2023-05-07T14:20:47;101612.0;;;24.44;49.65
50652;BME280;66928;52.086;5.240;2023-05-07T14:22:23;101612.0;;;24.58;49.25
50652;BME280;66928;52.086;5.240;2023-05-07T14:24:01;101616.0;;;24.38;49.25
50652;BME280;66928;52.086;5.240;2023-05-07T14:27:14;101616.0;;;24.36;48.02
50652;BME280;66928;52.086;5.240;2023-05-07T14:28:51;101620.0;;;24.38;47.98
50652;BME280;66928;52.086;5.240;2023-05-07T14:30:27;101630.0;;;24.18;49.27
50652;BME280;66928;52.086;5.240;2023-05-07T14:33:41;101628.0;;;24.09;49.82
50652;BME280;66928;52.086;5.240;2023-05-07T14:35:17;101634.0;;;23.95;50.3
50652;BME280;66928;52.086;5.240;2023-05-07T14:36:55;101636.0;;;24.08;50.49
50652;BME280;66928;52.086;5.240;2023-05-07T14:38:32;101639.0;;;24.01;51.1
50652;BME280;66928;52.086;5.240;2023-05-07T14:41:47;101637.0;;;23.98;51.07
50652;BME280;66928;52.086;5.240;2023-05-07T14:43:23;101639.0;;;23.81;51.04
50652;BME280;66928;52.086;5.240;2023-05-07T14:44:59;101642.0;;;23.87;51.53
50652;BME280;66928;52.086;5.240;2023-05-07T14:48:11;101641.0;;;23.8;51.79
50652;BME280;66928;52.086;5.240;2023-05-07T14:49:47;101641.0;;;23.75;52.27
50652;BME280;66928;52.086;5.240;2023-05-07T14:51:24;101649.0;;;23.68;52.26
50652;BME280;66928;52.086;5.240;2023-05-07T14:54:37;101653.0;;;23.65;52.67
50652;BME280;66928;52.086;5.240;2023-05-07T14:56:14;101656.0;;;23.62;52.85
50652;BME280;66928;52.086;5.240;2023-05-07T14:57:50;101660.0;;;23.4;53.26
50652;BME280;66928;52.086;5.240;2023-05-07T14:59:28;101659.0;;;22.89;54.23
50652;BME280;66928;52.086;5.240;2023-05-07T15:02:41;101668.0;;;21.37;61.4
50652;BME280;66928;52.086;5.240;2023-05-07T15:04:18;101667.0;;;20.77;64.48
50652;BME280;66928;52.086;5.240;2023-05-07T15:05:54;101685.0;;;19.84;67.25
50652;BME280;66928;52.086;5.240;2023-05-07T15:09:07;101692.0;;;19.37;76.33
50652;BME280;66928;52.086;5.240;2023-05-07T15:10:44;101695.0;;;18.87;79.94
50652;BME280;66928;52.086;5.240;2023-05-07T15:15:32;101710.0;;;17.91;85.96
50652;BME280;66928;52.086;5.240;2023-05-07T15:17:09;101699.0;;;17.45;89.08
50652;BME280;66928;52.086;5.240;2023-05-07T15:18:46;101699.0;;;17.11;92.61
50652;BME280;66928;52.086;5.240;2023-05-07T15:20:22;101705.0;;;17.0;93.66
50652;BME280;66928;52.086;5.240;2023-05-07T15:23:36;101701.0;;;16.79;96.96
50652;BME280;66928;52.086;5.240;2023-05-07T15:25:12;101696.0;;;16.91;98.52
50652;BME280;66928;52.086;5.240;2023-05-07T15:26:48;101702.0;;;16.7;100.0
50652;BME280;66928;52.086;5.240;2023-05-07T15:30:01;101703.0;;;16.77;100.0
50652;BME280;66928;52.086;5.240;2023-05-07T15:31:37;101705.0;;;16.62;100.0
50652;BME280;66928;52.086;5.240;2023-05-07T15:33:14;101719.0;;;16.52;100.0
50652;BME280;66928;52.086;5.240;2023-05-07T15:36:27;101726.0;;;16.31;100.0
50652;BME280;66928;52.086;5.240;2023-05-07T15:38:04;101719.0;;;16.31;100.0
50652;BME280;66928;52.086;5.240;2023-05-07T15:39:40;101731.0;;;16.21;100.0
50652;BME280;66928;52.086;5.240;2023-05-07T15:41:16;101740.0;;;16.22;100.0
50652;BME280;66928;52.086;5.240;2023-05-07T15:44:32;101738.0;;;16.34;100.0
50652;BME280;66928;52.086;5.240;2023-05-07T15:46:08;101732.0;;;16.25;100.0
50652;BME280;66928;52.086;5.240;2023-05-07T15:47:44;101730.0;;;16.3;100.0
50652;BME280;66928;52.086;5.240;2023-05-07T15:50:57;101736.0;;;16.36;100.0
50652;BME280;66928;52.086;5.240;2023-05-07T15:52:35;101737.0;;;16.31;100.0
50652;BME280;66928;52.086;5.240;2023-05-07T15:54:11;101735.0;;;16.3;100.0
50652;BME280;66928;52.086;5.240;2023-05-07T15:55:47;101731.0;;;16.2;100.0
50652;BME280;66928;52.086;5.240;2023-05-07T15:59:00;101733.0;;;16.2;100.0
50652;BME280;66928;52.086;5.240;2023-05-07T16:00:37;101731.0;;;16.2;100.0
50652;BME280;66928;52.086;5.240;2023-05-07T16:02:14;101727.0;;;16.21;100.0
50652;BME280;66928;52.086;5.240;2023-05-07T16:05:27;101721.0;;;16.22;100.0
50652;BME280;66928;52.086;5.240;2023-05-07T16:07:03;101724.0;;;16.15;100.0
50652;BME280;66928;52.086;5.240;2023-05-07T16:08:39;101719.0;;;16.2;100.0
50652;BME280;66928;52.086;5.240;2023-05-07T16:11:53;101718.0;;;16.25;100.0
50652;BME280;66928;52.086;5.240;2023-05-07T16:13:29;101721.0;;;16.2;100.0
50652;BME280;66928;52.086;5.240;2023-05-07T16:15:06;101722.0;;;16.2;100.0
50652;BME280;66928;52.086;5.240;2023-05-07T16:16:42;101716.0;;;16.23;100.0
50652;BME280;66928;52.086;5.240;2023-05-07T16:19:54;101715.0;;;16.22;100.0
50652;BME280;66928;52.086;5.240;2023-05-07T16:21:31;101721.0;;;16.25;100.0
50652;BME280;66928;52.086;5.240;2023-05-07T16:23:08;101727.0;;;16.37;100.0
50652;BME280;66928;52.086;5.240;2023-05-07T16:26:22;101728.0;;;16.41;100.0
50652;BME280;66928;52.086;5.240;2023-05-07T16:27:58;101732.0;;;16.47;100.0
50652;BME280;66928;52.086;5.240;2023-05-07T16:29:34;101728.0;;;16.66;100.0
50652;BME280;66928;52.086;5.240;2023-05-07T16:32:46;101733.0;;;16.77;100.0
50652;BME280;66928;52.086;5.240;2023-05-07T16:34:23;101732.0;;;16.84;98.29
50652;BME280;66928;52.086;5.240;2023-05-07T16:36:00;101730.0;;;16.9;97.53
50652;BME280;66928;52.086;5.240;2023-05-07T16:37:39;101734.0;;;16.96;96.11